Scilly, United Kingdom
Current Conditions -  °F | °C
As of 2:20 PM on Wednesday 28 Jan 2015 (Local Time) from EGHE Reporting Station
Broken Clouds Broken Clouds  
Wind Chill: 37°   Ceiling: 4400
Heat Index: 46°   Visibility: 6mi
Dew Point: 34°   Wind: 32mph
Humidity: 62%   Direction: 310°NW
Pressure: 29.88"   Gusts: NA
Location:  49.93°N, 6.31°W
Report Text: EGHE 281420Z 31028KT 9999 FEW012 BKN044 08/01 Q1012
Loading
Personal Weather Stations






























Interactive Weather Map New forecast layout! Learn more

10-Day Weather Forecast

Advertisements
Track Severe Weather on mobile